Time,TemperatureF,DewpointF,PressureIn,WindDirection,WindDirectionDegrees,WindSpeedMPH,WindSpeedGustMPH,Humidity,HourlyPrecipIn,Conditions,Clouds,dailyrainin,SoftwareType,DateUTC
2013-01-31 06:01:00,50.0,38.0,30.17,North,9,0.0,0.0,62,0.00,,,0.00,,2013-01-31 14:01:00,
2013-01-31 06:11:00,50.0,38.0,30.17,North,9,0.0,0.0,62,0.00,,,0.00,,2013-01-31 14:11:00,
2013-01-31 06:21:00,46.0,37.0,30.17,North,5,0.0,0.0,72,0.00,,,0.00,,2013-01-31 14:21:00,
2013-01-31 06:31:00,47.0,38.0,30.17,North,5,0.0,0.0,71,0.00,,,0.00,,2013-01-31 14:31:00,
2013-01-31 06:41:00,47.0,38.0,30.17,North,5,0.0,0.0,71,0.00,,,0.00,,2013-01-31 14:41:00,
2013-01-31 06:52:00,48.0,38.0,30.17,North,5,0.0,0.0,67,0.00,,,0.00,,2013-01-31 14:52:00,
2013-01-31 07:02:00,50.0,38.0,30.17,NNE,17,1.0,4.0,63,0.00,,,0.00,,2013-01-31 15:02:00,
2013-01-31 07:11:00,50.0,38.0,30.17,NNE,17,1.0,4.0,63,0.00,,,0.00,,2013-01-31 15:11:00,
2013-01-31 07:22:00,51.0,38.0,30.18,NNE,17,0.0,5.0,61,0.00,,,0.00,,2013-01-31 15:22:00,
2013-01-31 07:31:00,53.0,38.0,30.18,NNE,13,0.0,1.0,57,0.00,,,0.00,,2013-01-31 15:31:00,
2013-01-31 07:42:00,53.0,38.0,30.18,NNE,13,0.0,1.0,57,0.00,,,0.00,,2013-01-31 15:42:00,
2013-01-31 07:52:00,54.0,37.0,30.18,NNE,13,0.0,3.0,53,0.00,,,0.00,,2013-01-31 15:52:00,
2013-01-31 08:03:00,52.0,39.0,30.19,NNE,13,0.0,0.0,62,0.00,,,0.00,,2013-01-31 16:03:00,
2013-01-31 08:21:00,48.0,38.0,30.19,NNE,13,0.0,0.0,69,0.00,,,0.00,,2013-01-31 16:21:00,
2013-01-31 08:32:00,50.0,39.0,30.19,NNE,13,0.0,0.0,66,0.00,,,0.00,,2013-01-31 16:32:00,
2013-01-31 08:41:00,50.0,39.0,30.19,NNE,13,0.0,0.0,66,0.00,,,0.00,,2013-01-31 16:41:00,
2013-01-31 08:52:00,52.0,41.0,30.19,NNE,13,0.0,0.0,65,0.00,,,0.00,,2013-01-31 16:52:00,
2013-01-31 09:01:00,55.0,42.0,30.20,NNE,13,0.0,0.0,62,0.00,,,0.00,,2013-01-31 17:01:00,
2013-01-31 09:22:00,56.0,41.0,30.20,NNE,13,0.0,0.0,58,0.00,,,0.00,,2013-01-31 17:22:00,
2013-01-31 09:31:00,57.0,40.0,30.20,North,355,1.0,3.0,52,0.00,,,0.00,,2013-01-31 17:31:00,
2013-01-31 09:42:00,57.0,40.0,30.20,North,355,1.0,3.0,52,0.00,,,0.00,,2013-01-31 17:42:00,
2013-01-31 09:53:00,59.0,41.0,30.20,NNW,343,0.0,2.0,52,0.00,,,0.00,,2013-01-31 17:53:00,
2013-01-31 10:02:00,60.0,43.0,30.21,NNW,342,0.0,0.0,53,0.00,,,0.00,,2013-01-31 18:02:00,
2013-01-31 10:11:00,61.0,45.0,30.21,NNW,343,0.0,0.0,55,0.00,,,0.00,,2013-01-31 18:11:00,
2013-01-31 10:21:00,61.0,45.0,30.21,NNW,343,0.0,0.0,55,0.00,,,0.00,,2013-01-31 18:21:00,
2013-01-31 10:31:00,63.0,46.0,30.21,NNW,343,0.0,0.0,54,0.00,,,0.00,,2013-01-31 18:31:00,
2013-01-31 10:42:00,63.0,46.0,30.21,NNW,343,0.0,0.0,54,0.00,,,0.00,,2013-01-31 18:42:00,
2013-01-31 10:52:00,65.0,46.0,30.21,NNW,343,0.0,0.0,50,0.00,,,0.00,,2013-01-31 18:52:00,
2013-01-31 11:01:00,66.0,47.0,30.21,NNW,342,0.0,0.0,51,0.00,,,0.00,,2013-01-31 19:01:00,
2013-01-31 11:11:00,66.0,47.0,30.21,NNW,342,0.0,0.0,51,0.00,,,0.00,,2013-01-31 19:11:00,
2013-01-31 11:21:00,67.0,46.0,30.20,NNW,344,0.0,0.0,47,0.00,,,0.00,,2013-01-31 19:21:00,
2013-01-31 11:32:00,68.0,44.0,30.19,NW,323,1.0,3.0,42,0.00,,,0.00,,2013-01-31 19:32:00,
2013-01-31 11:42:00,68.0,44.0,30.19,NW,323,1.0,3.0,42,0.00,,,0.00,,2013-01-31 19:42:00,
2013-01-31 11:52:00,70.0,44.0,30.19,NW,322,0.0,1.0,39,0.00,,,0.00,,2013-01-31 19:52:00,
2013-01-31 12:01:00,71.0,45.0,30.18,NW,317,0.0,0.0,39,0.00,,,0.00,,2013-01-31 20:01:00,
2013-01-31 12:11:00,71.0,45.0,30.18,NW,317,0.0,0.0,39,0.00,,,0.00,,2013-01-31 20:11:00,
2013-01-31 12:21:00,72.0,44.0,30.17,NW,304,0.0,4.0,36,0.00,,,0.00,,2013-01-31 20:21:00,
2013-01-31 12:31:00,72.0,42.0,30.16,WNW,300,4.0,5.0,34,0.00,,,0.00,,2013-01-31 20:31:00,
2013-01-31 12:41:00,73.0,42.0,30.15,WNW,291,1.0,5.0,33,0.00,,,0.00,,2013-01-31 20:41:00,
2013-01-31 12:52:00,73.0,42.0,30.15,WNW,291,1.0,5.0,33,0.00,,,0.00,,2013-01-31 20:52:00,
2013-01-31 13:01:00,74.0,44.0,30.14,West,263,1.0,6.0,34,0.00,,,0.00,,2013-01-31 21:01:00,
2013-01-31 13:11:00,74.0,41.0,30.14,SW,225,2.0,5.0,31,0.00,,,0.00,,2013-01-31 21:11:00,
2013-01-31 13:21:00,74.0,41.0,30.14,SW,225,2.0,5.0,31,0.00,,,0.00,,2013-01-31 21:21:00,
2013-01-31 13:31:00,73.0,42.0,30.13,WNW,284,1.0,7.0,33,0.00,,,0.00,,2013-01-31 21:31:00,
2013-01-31 13:42:00,73.0,42.0,30.13,WNW,284,1.0,7.0,33,0.00,,,0.00,,2013-01-31 21:42:00,
2013-01-31 13:52:00,75.0,42.0,30.12,West,275,1.0,5.0,31,0.00,,,0.00,,2013-01-31 21:52:00,
2013-01-31 14:02:00,76.0,43.0,30.12,West,264,2.0,4.0,31,0.00,,,0.00,,2013-01-31 22:02:00,
2013-01-31 14:11:00,76.0,43.0,30.12,West,264,2.0,4.0,31,0.00,,,0.00,,2013-01-31 22:11:00,
2013-01-31 14:21:00,76.0,43.0,30.11,WSW,250,0.0,6.0,31,0.00,,,0.00,,2013-01-31 22:21:00,
2013-01-31 14:32:00,76.0,44.0,30.11,WSW,242,2.0,6.0,32,0.00,,,0.00,,2013-01-31 22:32:00,
2013-01-31 14:42:00,76.0,44.0,30.11,WSW,242,2.0,6.0,32,0.00,,,0.00,,2013-01-31 22:42:00,
2013-01-31 14:52:00,75.0,44.0,30.11,WSW,246,3.0,10.0,33,0.00,,,0.00,,2013-01-31 22:52:00,
2013-01-31 15:01:00,74.0,42.0,30.11,West,279,3.0,10.0,32,0.00,,,0.00,,2013-01-31 23:01:00,
2013-01-31 15:11:00,74.0,42.0,30.11,West,279,3.0,10.0,32,0.00,,,0.00,,2013-01-31 23:11:00,
2013-01-31 15:21:00,74.0,42.0,30.11,WSW,237,2.0,7.0,32,0.00,,,0.00,,2013-01-31 23:21:00,
2013-01-31 15:31:00,74.0,41.0,30.10,SW,236,1.0,9.0,31,0.00,,,0.00,,2013-01-31 23:31:00,
2013-01-31 15:41:00,74.0,41.0,30.10,SW,236,1.0,9.0,31,0.00,,,0.00,,2013-01-31 23:41:00,
2013-01-31 15:52:00,73.0,42.0,30.10,SW,231,2.0,7.0,33,0.00,,,0.00,,2013-01-31 23:52:00,
2013-01-31 16:01:00,73.0,41.0,30.10,SW,232,0.0,6.0,31,0.00,,,0.00,,2013-02-01 00:01:00,
2013-01-31 16:11:00,73.0,41.0,30.10,SW,232,0.0,6.0,31,0.00,,,0.00,,2013-02-01 00:11:00,
2013-01-31 16:21:00,73.0,41.0,30.10,SW,233,1.0,4.0,31,0.00,,,0.00,,2013-02-01 00:21:00,
2013-01-31 16:31:00,72.0,41.0,30.10,SW,234,3.0,5.0,33,0.00,,,0.00,,2013-02-01 00:31:00,
2013-01-31 16:42:00,72.0,41.0,30.10,SW,234,3.0,5.0,33,0.00,,,0.00,,2013-02-01 00:42:00,
2013-01-31 16:51:00,71.0,40.0,30.10,SSW,194,0.0,3.0,33,0.00,,,0.00,,2013-02-01 00:51:00,
2013-01-31 17:01:00,69.0,42.0,30.10,SSW,194,0.0,1.0,38,0.00,,,0.00,,2013-02-01 01:01:00,
2013-01-31 17:11:00,68.0,41.0,30.10,SSW,194,1.0,3.0,37,0.00,,,0.00,,2013-02-01 01:11:00,
2013-01-31 17:21:00,68.0,41.0,30.10,SSW,194,1.0,3.0,37,0.00,,,0.00,,2013-02-01 01:21:00,
2013-01-31 17:31:00,67.0,40.0,30.10,SSW,194,1.0,2.0,37,0.00,,,0.00,,2013-02-01 01:31:00,
2013-01-31 17:41:00,67.0,40.0,30.10,SSW,194,1.0,2.0,37,0.00,,,0.00,,2013-02-01 01:41:00,
2013-01-31 17:52:00,66.0,40.0,30.10,SSW,194,0.0,3.0,38,0.00,,,0.00,,2013-02-01 01:52:00,
2013-01-31 18:01:00,64.0,39.0,30.10,SSW,194,0.0,0.0,40,0.00,,,0.00,,2013-02-01 02:01:00,
2013-01-31 18:11:00,64.0,39.0,30.10,SSW,194,0.0,0.0,40,0.00,,,0.00,,2013-02-01 02:11:00,
2013-01-31 18:21:00,64.0,40.0,30.11,SSW,194,0.0,0.0,41,0.00,,,0.00,,2013-02-01 02:21:00,
2013-01-31 18:31:00,63.0,40.0,30.11,SSW,194,0.0,0.0,43,0.00,,,0.00,,2013-02-01 02:31:00,
2013-01-31 18:41:00,63.0,40.0,30.11,SSW,194,0.0,0.0,43,0.00,,,0.00,,2013-02-01 02:41:00,
2013-01-31 18:52:00,63.0,40.0,30.12,SSW,194,0.0,2.0,43,0.00,,,0.00,,2013-02-01 02:52:00,
2013-01-31 19:01:00,64.0,41.0,30.11,South,190,2.0,3.0,43,0.00,,,0.00,,2013-02-01 03:01:00,
2013-01-31 19:11:00,64.0,41.0,30.11,South,190,2.0,3.0,43,0.00,,,0.00,,2013-02-01 03:11:00,
2013-01-31 19:21:00,64.0,41.0,30.11,NNW,344,4.0,8.0,43,0.00,,,0.00,,2013-02-01 03:21:00,
2013-01-31 19:32:00,65.0,42.0,30.11,NNE,24,4.0,6.0,43,0.00,,,0.00,,2013-02-01 03:32:00,
2013-01-31 19:41:00,65.0,42.0,30.11,NNE,24,4.0,6.0,43,0.00,,,0.00,,2013-02-01 03:41:00,
2013-01-31 19:52:00,62.0,41.0,30.12,NNE,12,0.0,5.0,46,0.00,,,0.00,,2013-02-01 03:52:00,
2013-01-31 20:01:00,61.0,41.0,30.12,NNW,346,2.0,5.0,48,0.00,,,0.00,,2013-02-01 04:01:00,
2013-01-31 20:11:00,61.0,42.0,30.12,NW,325,0.0,6.0,49,0.00,,,0.00,,2013-02-01 04:11:00,
2013-01-31 20:21:00,61.0,42.0,30.12,NW,325,0.0,6.0,49,0.00,,,0.00,,2013-02-01 04:21:00,
2013-01-31 20:31:00,62.0,42.0,30.12,North,350,2.0,7.0,47,0.00,,,0.00,,2013-02-01 04:31:00,
2013-01-31 20:41:00,62.0,42.0,30.12,North,350,2.0,7.0,47,0.00,,,0.00,,2013-02-01 04:41:00,
2013-01-31 20:52:00,61.0,41.0,30.12,North,355,0.0,3.0,48,0.00,,,0.00,,2013-02-01 04:52:00,
2013-01-31 21:02:00,61.0,41.0,30.12,NE,40,0.0,4.0,48,0.00,,,0.00,,2013-02-01 05:02:00,
2013-01-31 21:22:00,60.0,40.0,30.12,NNW,341,1.0,5.0,48,0.00,,,0.00,,2013-02-01 05:22:00,
2013-01-31 21:31:00,60.0,40.0,30.11,NNE,17,0.0,4.0,48,0.00,,,0.00,,2013-02-01 05:31:00,
2013-01-31 21:41:00,60.0,40.0,30.11,NNE,17,0.0,4.0,48,0.00,,,0.00,,2013-02-01 05:41:00,
2013-01-31 21:52:00,61.0,41.0,30.11,NE,36,1.0,5.0,48,0.00,,,0.00,,2013-02-01 05:52:00,
2013-01-31 22:02:00,62.0,40.0,30.11,NE,44,3.0,6.0,44,0.00,,,0.00,,2013-02-01 06:02:00,
2013-01-31 22:21:00,61.0,40.0,30.11,North,360,0.0,5.0,46,0.00,,,0.00,,2013-02-01 06:21:00,
2013-01-31 22:31:00,60.0,40.0,30.11,North,10,0.0,6.0,47,0.00,,,0.00,,2013-02-01 06:31:00,
2013-01-31 22:41:00,60.0,40.0,30.11,North,10,0.0,6.0,47,0.00,,,0.00,,2013-02-01 06:41:00,
2013-01-31 22:52:00,59.0,40.0,30.11,North,350,0.0,3.0,49,0.00,,,0.00,,2013-02-01 06:52:00,
2013-01-31 23:01:00,58.0,40.0,30.12,North,355,0.0,2.0,52,0.00,,,0.00,,2013-02-01 07:01:00,
2013-01-31 23:11:00,58.0,40.0,30.12,NNE,31,2.0,4.0,51,0.00,,,0.00,,2013-02-01 07:11:00,
2013-01-31 23:21:00,58.0,40.0,30.12,NNE,31,2.0,4.0,51,0.00,,,0.00,,2013-02-01 07:21:00,
2013-01-31 23:31:00,58.0,39.0,30.12,NNW,329,0.0,3.0,50,0.00,,,0.00,,2013-02-01 07:31:00,
2013-01-31 23:41:00,58.0,39.0,30.12,NNW,329,0.0,3.0,50,0.00,,,0.00,,2013-02-01 07:41:00,
2013-01-31 23:52:00,58.0,40.0,30.12,NNW,341,0.0,3.0,52,0.00,,,0.00,,2013-02-01 07:52:00,